createdAt,value
2023-05-16T00:01:01.774Z,5.88
2023-05-16T00:03:31.965Z,9.82
2023-05-16T00:06:02.701Z,8.20
2023-05-16T00:08:32.979Z,7.57
2023-05-16T00:11:05.753Z,7.97
2023-05-16T00:13:35.765Z,8.48
2023-05-16T00:16:05.784Z,10.02
2023-05-16T00:18:37.792Z,8.27
2023-05-16T00:21:08.073Z,7.55
2023-05-16T00:23:38.893Z,7.05
2023-05-16T00:26:11.605Z,9.23
2023-05-16T00:28:44.435Z,11.18
2023-05-16T00:31:14.468Z,7.78
2023-05-16T00:33:44.692Z,8.73
2023-05-16T00:36:14.709Z,8.82
2023-05-16T00:38:44.764Z,7.90
2023-05-16T00:41:17.497Z,9.07
2023-05-16T00:43:47.802Z,12.30
2023-05-16T00:46:18.293Z,11.00
2023-05-16T00:48:48.416Z,8.55
2023-05-16T00:51:18.969Z,8.63
2023-05-16T00:53:49.056Z,9.05
2023-05-16T00:56:21.804Z,9.77
2023-05-16T00:58:51.997Z,12.25
2023-05-16T01:01:23.905Z,11.73
2023-05-16T01:03:56.145Z,11.07
2023-05-16T01:06:26.353Z,10.02
2023-05-16T01:08:56.439Z,10.32
2023-05-16T01:11:49.070Z,10.88
2023-05-16T01:14:36.425Z,10.52
2023-05-16T01:17:11.734Z,9.50
2023-05-16T01:20:06.536Z,14.57
2023-05-16T01:22:46.272Z,10.85
2023-05-16T01:25:31.652Z,12.60
2023-05-16T01:28:06.005Z,12.32
2023-05-16T01:30:39.033Z,11.80
2023-05-16T01:33:09.119Z,9.38
2023-05-16T01:35:41.495Z,9.38
2023-05-16T01:38:16.823Z,11.23
2023-05-16T01:40:54.221Z,9.73
2023-05-16T01:43:32.860Z,10.05
2023-05-16T01:46:06.933Z,10.48
2023-05-16T01:48:42.753Z,11.70
2023-05-16T01:51:13.651Z,8.75
2023-05-16T01:53:45.747Z,12.30
2023-05-16T01:56:19.461Z,11.20
2023-05-16T01:58:53.367Z,10.82
2023-05-16T02:01:23.466Z,10.55
2023-05-16T02:03:54.442Z,9.68
2023-05-16T02:06:26.095Z,10.82
2023-05-16T02:08:56.182Z,10.52
2023-05-16T02:11:26.306Z,10.90
2023-05-16T02:13:59.053Z,12.73
2023-05-16T02:16:29.403Z,11.32
2023-05-16T02:18:59.469Z,12.70
2023-05-16T02:21:29.553Z,10.45
2023-05-16T02:23:59.572Z,12.00
2023-05-16T02:26:30.337Z,12.05
2023-05-16T02:29:02.976Z,14.10
2023-05-16T02:31:34.259Z,11.52
2023-05-16T02:34:04.781Z,11.43
2023-05-16T02:36:36.221Z,12.80
2023-05-16T02:39:08.919Z,10.95
2023-05-16T02:41:38.939Z,14.10
2023-05-16T02:44:11.745Z,13.15
2023-05-16T02:46:41.923Z,10.82
2023-05-16T02:49:13.258Z,11.75
2023-05-16T02:51:43.294Z,12.35
2023-05-16T02:54:13.305Z,12.77
2023-05-16T02:56:43.344Z,13.80
2023-05-16T02:59:16.978Z,12.88
2023-05-16T03:01:47.042Z,9.20
2023-05-16T03:04:17.134Z,10.77
2023-05-16T03:06:47.166Z,13.20
2023-05-16T03:09:17.139Z,13.52
2023-05-16T03:11:47.142Z,9.98
2023-05-16T03:14:19.844Z,9.90
2023-05-16T03:16:49.876Z,11.65
2023-05-16T03:19:20.097Z,11.73
2023-05-16T03:21:50.329Z,10.98
2023-05-16T03:24:23.199Z,10.98
2023-05-16T03:26:53.440Z,12.52
2023-05-16T03:29:27.260Z,10.90
2023-05-16T03:31:57.668Z,13.73
2023-05-16T03:34:27.748Z,18.33
2023-05-16T03:36:57.746Z,15.23
2023-05-16T03:39:27.900Z,12.35
2023-05-16T03:41:58.026Z,11.00
2023-05-16T03:44:30.672Z,12.00
2023-05-16T03:47:00.668Z,12.20
2023-05-16T03:49:31.089Z,11.88
2023-05-16T03:52:01.296Z,14.50
2023-05-16T03:54:31.281Z,12.90
2023-05-16T03:57:01.630Z,12.40
2023-05-16T03:59:34.840Z,13.70
2023-05-16T04:02:04.936Z,12.18
2023-05-16T04:04:34.960Z,11.50
2023-05-16T04:07:05.181Z,12.30
2023-05-16T04:09:35.292Z,10.80
2023-05-16T04:12:05.270Z,14.73
2023-05-16T04:14:38.171Z,11.50
2023-05-16T04:17:08.655Z,12.25
2023-05-16T04:19:38.844Z,12.85
2023-05-16T04:22:08.864Z,15.32
2023-05-16T04:24:38.895Z,10.95
2023-05-16T04:27:10.824Z,12.40
2023-05-16T04:29:43.511Z,14.05
2023-05-16T04:32:13.540Z,11.27
2023-05-16T04:34:45.525Z,10.73
2023-05-16T04:37:15.544Z,13.77
2023-05-16T04:39:45.659Z,10.07
2023-05-16T04:42:16.616Z,10.35
2023-05-16T04:44:50.440Z,11.15
2023-05-16T04:47:20.534Z,11.13
2023-05-16T04:49:50.553Z,13.63
2023-05-16T04:52:20.556Z,10.95
2023-05-16T04:54:53.392Z,16.42
2023-05-16T04:57:23.854Z,10.02
2023-05-16T04:59:56.576Z,11.95
2023-05-16T05:02:27.495Z,10.65
2023-05-16T05:04:57.554Z,11.57
2023-05-16T05:07:29.343Z,11.40
2023-05-16T05:09:59.365Z,10.55
2023-05-16T05:12:30.162Z,10.25
2023-05-16T05:15:03.006Z,11.23
2023-05-16T05:17:33.177Z,10.52
2023-05-16T05:20:07.053Z,13.32
2023-05-16T05:22:37.086Z,8.73
2023-05-16T05:25:07.759Z,8.48
2023-05-16T05:27:37.748Z,10.20
2023-05-16T05:30:11.730Z,9.50
2023-05-16T05:32:41.870Z,9.90
2023-05-16T05:35:12.318Z,9.13
2023-05-16T05:37:42.293Z,9.18
2023-05-16T05:40:13.234Z,13.05
2023-05-16T05:42:45.384Z,9.63
2023-05-16T05:45:19.724Z,9.48
2023-05-16T05:47:49.723Z,8.52
2023-05-16T05:50:20.008Z,10.75
2023-05-16T05:52:50.046Z,10.10
2023-05-16T05:55:20.205Z,9.30
2023-05-16T05:57:50.413Z,10.75
2023-05-16T06:00:23.498Z,9.40
2023-05-16T06:02:53.853Z,8.13
2023-05-16T06:05:24.174Z,9.95
2023-05-16T06:07:54.285Z,12.60
2023-05-16T06:10:24.270Z,7.63
2023-05-16T06:12:54.838Z,7.85
2023-05-16T06:15:28.839Z,10.80
2023-05-16T06:17:59.529Z,9.93
2023-05-16T06:20:29.665Z,11.75
2023-05-16T06:22:59.638Z,7.07
2023-05-16T06:25:30.647Z,7.43
2023-05-16T06:28:00.677Z,9.40
2023-05-16T06:30:33.333Z,9.60
2023-05-16T06:33:03.321Z,8.52
2023-05-16T06:35:33.376Z,6.57
2023-05-16T06:38:03.388Z,9.45
2023-05-16T06:40:33.434Z,13.05
2023-05-16T06:43:03.518Z,6.90
2023-05-16T06:45:36.662Z,9.00
2023-05-16T06:48:07.236Z,7.97
2023-05-16T06:50:38.327Z,7.40
2023-05-16T06:53:08.469Z,7.68
2023-05-16T06:55:38.539Z,8.02
2023-05-16T06:58:08.736Z,8.90
2023-05-16T07:00:41.892Z,7.35
2023-05-16T07:03:12.137Z,6.70
2023-05-16T07:05:42.259Z,7.10
2023-05-16T07:08:12.920Z,7.43
2023-05-16T07:10:42.923Z,8.57
2023-05-16T07:13:12.988Z,8.00
2023-05-16T07:15:45.621Z,10.25
2023-05-16T07:18:15.726Z,6.93
2023-05-16T07:20:46.077Z,7.57
2023-05-16T07:23:16.140Z,7.45
2023-05-16T07:25:46.344Z,8.98
2023-05-16T07:28:16.379Z,11.63
2023-05-16T07:30:49.081Z,8.25
2023-05-16T07:33:19.100Z,7.57
2023-05-16T07:35:50.021Z,7.35
2023-05-16T07:38:20.660Z,7.10
2023-05-16T07:40:51.017Z,7.05
2023-05-16T07:43:21.249Z,8.20
2023-05-16T07:45:53.984Z,12.98
2023-05-16T07:48:24.040Z,7.53
2023-05-16T07:50:55.716Z,7.47
2023-05-16T07:53:26.013Z,7.07
2023-05-16T07:55:56.461Z,6.50
2023-05-16T07:58:26.551Z,9.15
2023-05-16T08:00:59.292Z,9.73
2023-05-16T08:03:29.491Z,6.65
2023-05-16T08:05:59.781Z,12.20
2023-05-16T08:08:29.912Z,9.23
2023-05-16T08:10:59.988Z,9.10
2023-05-16T08:13:30.055Z,8.57
2023-05-16T08:16:02.846Z,10.02
2023-05-16T08:18:33.195Z,8.57
2023-05-16T08:21:06.035Z,11.48
2023-05-16T08:23:36.555Z,12.30
2023-05-16T08:26:06.872Z,11.90
2023-05-16T08:28:36.936Z,11.45
2023-05-16T08:31:09.679Z,13.00
2023-05-16T08:33:39.810Z,10.95
2023-05-16T08:36:10.338Z,10.48
2023-05-16T08:38:40.413Z,11.10
2023-05-16T08:41:10.721Z,11.85
2023-05-16T08:43:40.831Z,11.80
2023-05-16T08:46:13.592Z,12.07
2023-05-16T08:48:45.920Z,11.65
2023-05-16T08:51:16.134Z,11.23
2023-05-16T08:53:49.026Z,9.30
2023-05-16T08:56:20.246Z,13.00
2023-05-16T08:58:50.315Z,9.48
2023-05-16T09:01:23.318Z,12.73
2023-05-16T09:03:54.186Z,10.30
2023-05-16T09:06:25.123Z,10.30
2023-05-16T09:08:55.611Z,11.48
2023-05-16T09:11:26.195Z,12.38
2023-05-16T09:13:56.286Z,11.18
2023-05-16T09:16:28.970Z,14.95
2023-05-16T09:19:00.197Z,9.70
2023-05-16T09:21:32.148Z,11.70
2023-05-16T09:24:06.590Z,11.80
2023-05-16T09:26:37.184Z,10.52
2023-05-16T09:29:14.108Z,14.18
2023-05-16T09:31:46.834Z,14.65
2023-05-16T09:34:16.920Z,12.50
2023-05-16T09:36:46.983Z,12.23
2023-05-16T09:39:18.889Z,13.55
2023-05-16T09:41:49.435Z,15.80
2023-05-16T09:44:21.521Z,25.65
2023-05-16T09:46:54.275Z,13.98
2023-05-16T09:49:24.864Z,11.85
2023-05-16T09:51:55.143Z,13.23
2023-05-16T09:54:34.761Z,16.92
2023-05-16T09:57:05.066Z,18.58
2023-05-16T09:59:39.041Z,13.20
2023-05-16T10:02:11.876Z,15.70
2023-05-16T10:04:41.960Z,15.02
2023-05-16T10:07:14.166Z,16.98
2023-05-16T10:09:44.816Z,17.25
2023-05-16T10:12:16.789Z,14.43
2023-05-16T10:14:50.250Z,15.23
2023-05-16T10:17:23.196Z,17.40
2023-05-16T10:19:54.179Z,17.17
2023-05-16T10:22:25.085Z,15.65
2023-05-16T10:25:04.150Z,16.13
2023-05-16T10:27:34.475Z,15.88
2023-05-16T10:30:08.300Z,16.50
2023-05-16T10:32:42.858Z,15.15
2023-05-16T10:35:14.016Z,17.67
2023-05-16T10:37:44.638Z,19.15
2023-05-16T10:40:15.762Z,17.20
2023-05-16T10:42:48.624Z,27.70
2023-05-16T10:45:22.926Z,18.42
2023-05-16T10:48:00.126Z,23.77
2023-05-16T10:50:37.591Z,44.78
2023-05-16T10:53:18.422Z,40.20
2023-05-16T10:55:52.569Z,37.05
2023-05-16T10:58:27.217Z,21.17
2023-05-16T11:01:19.137Z,22.58
2023-05-16T11:04:10.509Z,17.45
2023-05-16T11:06:58.223Z,27.60
2023-05-16T11:09:30.173Z,27.25
2023-05-16T11:12:03.108Z,24.42
2023-05-16T11:14:39.261Z,24.00
2023-05-16T11:17:14.205Z,31.10
2023-05-16T11:19:48.948Z,26.67
2023-05-16T11:22:27.055Z,26.25
2023-05-16T11:24:59.474Z,33.03
2023-05-16T11:27:31.708Z,32.53
2023-05-16T11:30:16.024Z,28.83
2023-05-16T11:32:47.410Z,30.80
2023-05-16T11:35:23.028Z,30.23
2023-05-16T11:37:53.532Z,32.10
2023-05-16T11:40:23.593Z,28.42
2023-05-16T11:42:53.667Z,26.05
2023-05-16T11:45:26.026Z,28.08
2023-05-16T11:47:56.345Z,23.63
2023-05-16T11:50:29.087Z,37.90
2023-05-16T11:52:59.496Z,28.27
2023-05-16T11:58:04.929Z,25.40
2023-05-16T12:00:34.959Z,21.98
2023-05-16T12:03:08.428Z,21.45
2023-05-16T12:05:41.490Z,25.20
2023-05-16T12:08:14.032Z,26.38
2023-05-16T12:10:44.162Z,21.52
2023-05-16T12:13:14.470Z,20.63
2023-05-16T12:15:44.694Z,25.15
2023-05-16T12:18:14.886Z,20.92
2023-05-16T12:20:47.778Z,20.55
2023-05-16T12:23:18.267Z,21.88
2023-05-16T12:25:49.782Z,19.48
2023-05-16T12:28:19.848Z,19.52
2023-05-16T12:30:50.199Z,21.50
2023-05-16T12:33:20.393Z,21.17
2023-05-16T12:35:56.301Z,23.13
2023-05-16T12:38:26.822Z,20.08
2023-05-16T12:41:01.879Z,20.13
2023-05-16T12:43:31.977Z,17.90
2023-05-16T12:46:02.122Z,22.58
2023-05-16T12:48:36.084Z,22.67
2023-05-16T12:51:26.424Z,25.13
2023-05-16T12:54:06.068Z,20.02
2023-05-16T12:56:41.991Z,22.15
2023-05-16T12:59:12.489Z,25.55
2023-05-16T13:01:44.727Z,23.38
2023-05-16T13:04:19.390Z,22.10
2023-05-16T13:06:58.481Z,23.25
2023-05-16T13:09:32.689Z,23.08
2023-05-16T13:12:03.457Z,26.88
2023-05-16T13:14:33.512Z,28.30
2023-05-16T13:17:04.790Z,27.92
2023-05-16T13:19:34.836Z,25.90
2023-05-16T13:22:07.819Z,29.90
2023-05-16T13:24:37.880Z,28.33
2023-05-16T13:27:08.847Z,24.75
2023-05-16T13:29:38.939Z,28.83
2023-05-16T13:32:09.342Z,28.88
2023-05-16T13:34:40.587Z,27.85
2023-05-16T13:37:13.382Z,25.10
2023-05-16T13:39:43.474Z,24.98
2023-05-16T13:42:13.659Z,25.42
2023-05-16T13:44:45.060Z,26.50
2023-05-16T13:47:15.161Z,27.95
2023-05-16T13:49:45.200Z,28.52
2023-05-16T13:52:17.944Z,30.00
2023-05-16T13:54:48.009Z,31.88
2023-05-16T13:57:18.136Z,34.95
2023-05-16T14:00:17.658Z,36.60
2023-05-16T14:02:42.522Z,36.80
2023-05-16T14:05:13.217Z,37.60
2023-05-16T14:07:46.940Z,35.92
2023-05-16T14:10:17.148Z,38.08
2023-05-16T14:12:47.218Z,35.80
2023-05-16T14:15:17.256Z,37.65
2023-05-16T14:17:47.627Z,34.00
2023-05-16T14:20:17.694Z,33.13
2023-05-16T14:22:50.354Z,29.27
2023-05-16T14:25:20.844Z,36.42
2023-05-16T14:27:51.295Z,35.67
2023-05-16T14:30:21.374Z,36.75
2023-05-16T14:32:51.504Z,37.53
2023-05-16T14:35:21.933Z,37.75
2023-05-16T14:37:54.677Z,33.33
2023-05-16T14:40:24.803Z,38.58
2023-05-16T14:42:54.936Z,37.58
2023-05-16T14:45:25.007Z,40.88
2023-05-16T14:47:55.438Z,36.42
2023-05-16T14:50:25.886Z,37.90
2023-05-16T14:52:58.568Z,31.95
2023-05-16T14:55:28.955Z,38.72
2023-05-16T14:58:00.023Z,49.10
2023-05-16T15:00:30.943Z,37.45
2023-05-16T15:03:01.361Z,41.80
2023-05-16T15:05:31.643Z,42.88
2023-05-16T15:08:04.513Z,43.90
2023-05-16T15:10:34.566Z,47.13
2023-05-16T15:13:04.741Z,47.63
2023-05-16T15:15:35.093Z,44.08
2023-05-16T15:18:05.195Z,41.90
2023-05-16T15:20:35.315Z,44.05
2023-05-16T15:23:08.030Z,45.03
2023-05-16T15:25:38.094Z,42.33
2023-05-16T15:28:08.458Z,51.35
2023-05-16T15:30:38.504Z,54.35
2023-05-16T15:33:08.643Z,53.60
2023-05-16T15:35:38.796Z,43.40
2023-05-16T15:38:11.584Z,50.10
2023-05-16T15:40:41.658Z,62.70
2023-05-16T15:43:11.713Z,56.42
2023-05-16T15:45:42.309Z,49.33
2023-05-16T15:48:12.397Z,50.40
2023-05-16T15:50:43.628Z,36.65
2023-05-16T15:53:16.285Z,61.95
2023-05-16T15:55:48.126Z,58.00
2023-05-16T15:58:19.586Z,57.42
2023-05-16T16:00:50.880Z,56.08
2023-05-16T16:03:21.241Z,52.08
2023-05-16T16:05:51.617Z,57.05
2023-05-16T16:08:24.525Z,47.90
2023-05-16T16:10:54.573Z,44.28
2023-05-16T16:13:24.748Z,55.75
2023-05-16T16:15:54.986Z,49.92
2023-05-16T16:18:25.071Z,46.83
2023-05-16T16:20:56.545Z,49.13
2023-05-16T16:23:29.273Z,46.25
2023-05-16T16:25:59.325Z,47.22
2023-05-16T16:28:29.473Z,53.45
2023-05-16T16:30:59.563Z,50.20
2023-05-16T16:33:29.710Z,56.05
2023-05-16T16:35:59.802Z,52.03
2023-05-16T16:38:32.495Z,58.33
2023-05-16T16:41:02.564Z,44.35
2023-05-16T16:43:32.669Z,52.05
2023-05-16T16:46:02.790Z,53.75
2023-05-16T16:48:34.344Z,58.20
2023-05-16T16:51:05.352Z,56.78
2023-05-16T16:53:38.204Z,56.45
2023-05-16T16:56:11.148Z,59.78
2023-05-16T16:58:41.281Z,54.55
2023-05-16T17:01:12.760Z,60.45
2023-05-16T17:03:43.058Z,49.70
2023-05-16T17:06:13.162Z,55.50
2023-05-16T17:08:46.531Z,48.35
2023-05-16T17:11:22.851Z,49.40
2023-05-16T17:13:59.282Z,49.00
2023-05-16T17:16:29.666Z,51.03
2023-05-16T17:18:59.800Z,50.17
2023-05-16T17:21:29.936Z,50.78
2023-05-16T17:24:02.637Z,43.45
2023-05-16T17:26:32.771Z,50.00
2023-05-16T17:29:04.536Z,46.08
2023-05-16T17:31:34.668Z,48.83
2023-05-16T17:34:04.792Z,43.17
2023-05-16T17:36:34.877Z,44.97
2023-05-16T17:39:10.144Z,40.13
2023-05-16T17:41:40.516Z,51.15
2023-05-16T17:44:10.635Z,43.35
2023-05-16T17:46:42.652Z,46.95
2023-05-16T17:49:13.487Z,45.45
2023-05-16T17:51:50.751Z,51.65
2023-05-16T17:54:24.368Z,43.85
2023-05-16T17:56:54.936Z,51.80
2023-05-16T17:59:25.039Z,45.30
2023-05-16T18:01:55.433Z,51.38
2023-05-16T18:04:25.639Z,43.78
2023-05-16T18:06:56.454Z,48.15
2023-05-16T18:09:29.146Z,44.38
2023-05-16T18:12:00.730Z,47.13
2023-05-16T18:14:30.818Z,42.58
2023-05-16T18:17:00.877Z,35.53
2023-05-16T18:19:31.076Z,42.08
2023-05-16T18:22:01.454Z,41.85
2023-05-16T18:24:34.089Z,45.58
2023-05-16T18:27:04.657Z,41.45
2023-05-16T18:29:34.734Z,45.15
2023-05-16T18:32:04.834Z,44.42
2023-05-16T18:34:34.969Z,36.55
2023-05-16T18:37:05.025Z,45.45
2023-05-16T18:39:37.950Z,41.95
2023-05-16T18:42:08.209Z,41.60
2023-05-16T18:44:38.289Z,40.13
2023-05-16T18:47:08.942Z,38.17
2023-05-16T18:49:39.515Z,44.53
2023-05-16T18:52:10.474Z,33.95
2023-05-16T18:54:43.148Z,37.63
2023-05-16T18:57:13.424Z,40.28
2023-05-16T18:59:43.454Z,39.88
2023-05-16T19:02:13.516Z,35.08
2023-05-16T19:04:43.719Z,34.67
2023-05-16T19:07:13.783Z,39.33
2023-05-16T19:09:47.157Z,34.13
2023-05-16T19:12:17.188Z,39.45
2023-05-16T19:14:47.340Z,46.75
2023-05-16T19:17:17.360Z,42.80
2023-05-16T19:19:47.448Z,44.35
2023-05-16T19:22:17.842Z,39.08
2023-05-16T19:24:50.746Z,37.22
2023-05-16T19:27:21.108Z,41.05
2023-05-16T19:29:52.035Z,39.85
2023-05-16T19:32:22.151Z,36.05
2023-05-16T19:34:52.488Z,37.30
2023-05-16T19:37:22.581Z,34.03
2023-05-16T19:39:55.377Z,37.85
2023-05-16T19:42:25.433Z,37.65
2023-05-16T19:44:55.463Z,41.72
2023-05-16T19:47:25.537Z,32.60
2023-05-16T19:49:55.727Z,40.03
2023-05-16T19:52:26.315Z,36.38
2023-05-16T19:54:58.985Z,40.15
2023-05-16T19:57:29.062Z,33.33
2023-05-16T19:59:59.080Z,40.47
2023-05-16T20:02:30.406Z,32.70
2023-05-16T20:05:00.582Z,34.97
2023-05-16T20:07:30.672Z,34.22
2023-05-16T20:10:03.363Z,33.75
2023-05-16T20:12:33.440Z,32.58
2023-05-16T20:15:05.007Z,29.17
2023-05-16T20:17:35.131Z,41.20
2023-05-16T20:20:05.232Z,34.92
2023-05-16T20:22:35.363Z,36.45
2023-05-16T20:25:09.376Z,40.92
2023-05-16T20:27:39.467Z,36.85
2023-05-16T20:30:10.954Z,38.13
2023-05-16T20:32:41.352Z,41.47
2023-05-16T20:35:12.511Z,35.67
2023-05-16T20:37:42.601Z,40.95
2023-05-16T20:40:15.636Z,34.45
2023-05-16T20:42:46.668Z,37.00
2023-05-16T20:45:17.241Z,34.80
2023-05-16T20:47:47.756Z,39.97
2023-05-16T20:50:18.338Z,37.65
2023-05-16T20:52:48.497Z,33.15
2023-05-16T20:55:21.452Z,38.00
2023-05-16T20:57:51.627Z,34.85
2023-05-16T21:00:22.220Z,36.97
2023-05-16T21:02:52.409Z,34.35
2023-05-16T21:05:25.616Z,33.70
2023-05-16T21:07:56.310Z,44.45
2023-05-16T21:10:28.989Z,40.55
2023-05-16T21:12:59.082Z,42.63
2023-05-16T21:15:29.533Z,41.42
2023-05-16T21:17:59.867Z,36.40
2023-05-16T21:20:30.885Z,35.60
2023-05-16T21:23:00.929Z,34.40
2023-05-16T21:25:33.734Z,39.58
2023-05-16T21:28:03.860Z,32.58
2023-05-16T21:30:33.912Z,38.08
2023-05-16T21:33:04.586Z,35.92
2023-05-16T21:35:34.673Z,28.67
2023-05-16T21:38:04.688Z,33.20
2023-05-16T21:40:37.386Z,39.95
2023-05-16T21:43:07.465Z,37.80
2023-05-16T21:45:37.647Z,41.90
2023-05-16T21:48:08.153Z,32.05
2023-05-16T21:50:38.375Z,44.72
2023-05-16T21:53:08.444Z,37.03
2023-05-16T21:55:41.246Z,35.75
2023-05-16T21:58:11.297Z,30.95
2023-05-16T22:00:41.589Z,38.13
2023-05-16T22:03:11.726Z,38.75
2023-05-16T22:05:41.906Z,38.03
2023-05-16T22:08:11.944Z,34.13
2023-05-16T22:10:44.700Z,35.97
2023-05-16T22:13:14.802Z,29.00
2023-05-16T22:15:52.178Z,29.55
2023-05-16T22:18:33.729Z,28.83
2023-05-16T22:21:04.216Z,28.88
2023-05-16T22:23:34.268Z,25.83
2023-05-16T22:26:07.285Z,24.73
2023-05-16T22:28:37.377Z,24.23
2023-05-16T22:31:07.450Z,23.27
2023-05-16T22:33:37.761Z,20.23
2023-05-16T22:36:08.428Z,23.13
2023-05-16T22:38:38.460Z,28.77
2023-05-16T22:41:11.190Z,24.52
2023-05-16T22:43:41.717Z,21.00
2023-05-16T22:46:11.784Z,19.75
2023-05-16T22:48:41.856Z,18.85
2023-05-16T22:51:11.962Z,20.77
2023-05-16T22:53:42.662Z,20.98
2023-05-16T22:56:15.323Z,21.60
2023-05-16T22:58:45.452Z,21.90
2023-05-16T23:01:15.581Z,20.40
2023-05-16T23:03:45.831Z,22.73
2023-05-16T23:06:15.926Z,26.42
2023-05-16T23:08:46.099Z,23.38
2023-05-16T23:11:19.946Z,23.77
2023-05-16T23:13:49.996Z,18.65
2023-05-16T23:16:20.093Z,19.40
2023-05-16T23:18:50.200Z,17.15
2023-05-16T23:21:20.370Z,18.13
2023-05-16T23:23:50.682Z,17.45
2023-05-16T23:26:23.319Z,19.10
2023-05-16T23:28:53.366Z,18.20
2023-05-16T23:31:23.435Z,20.15
2023-05-16T23:33:53.581Z,18.08
2023-05-16T23:36:23.814Z,24.27
2023-05-16T23:38:53.915Z,27.13
2023-05-16T23:41:26.586Z,21.88
2023-05-16T23:43:56.724Z,20.70
2023-05-16T23:46:26.775Z,22.92
2023-05-16T23:48:57.439Z,25.70
2023-05-16T23:51:30.758Z,23.23
2023-05-16T23:54:05.472Z,26.48
2023-05-16T23:56:38.233Z,24.25
2023-05-16T23:59:08.310Z,21.85
